createdAt,value
2019-03-16T00:00:36.310Z,99.60
2019-03-16T00:03:05.869Z,99.40
2019-03-16T00:05:35.129Z,99.00
2019-03-16T00:08:04.263Z,98.80
2019-03-16T00:10:33.432Z,98.90
2019-03-16T00:13:02.611Z,98.60
2019-03-16T00:15:31.742Z,98.30
2019-03-16T00:18:00.894Z,98.10
2019-03-16T00:20:30.039Z,97.90
2019-03-16T00:22:59.249Z,98.00
2019-03-16T00:25:28.400Z,98.00
2019-03-16T00:27:57.809Z,97.70
2019-03-16T00:30:27.034Z,97.70
2019-03-16T00:32:56.181Z,97.90
2019-03-16T00:35:25.305Z,97.70
2019-03-16T00:37:54.543Z,97.40
2019-03-16T00:40:23.722Z,97.40
2019-03-16T00:42:52.853Z,97.20
2019-03-16T00:45:22.042Z,97.40
2019-03-16T00:47:51.169Z,97.50
2019-03-16T00:50:20.326Z,97.20
2019-03-16T00:52:49.462Z,97.20
2019-03-16T00:55:18.606Z,97.00
2019-03-16T00:57:47.749Z,97.10
2019-03-16T01:00:17.141Z,97.10
2019-03-16T01:02:46.405Z,96.90
2019-03-16T01:05:15.870Z,96.70
2019-03-16T01:07:45.042Z,96.50
2019-03-16T01:10:14.254Z,96.30
2019-03-16T01:12:43.417Z,96.10
2019-03-16T01:15:12.765Z,95.90
2019-03-16T01:17:41.917Z,95.70
2019-03-16T01:20:11.147Z,95.90
2019-03-16T01:22:40.297Z,95.60
2019-03-16T01:25:09.657Z,95.60
2019-03-16T01:27:38.890Z,95.50
2019-03-16T01:30:10.185Z,95.40
2019-03-16T01:32:40.905Z,95.40
2019-03-16T01:35:10.336Z,95.40
2019-03-16T01:37:39.658Z,95.50
2019-03-16T01:40:09.007Z,95.50
2019-03-16T01:42:38.329Z,95.40
2019-03-16T01:45:07.703Z,95.50
2019-03-16T01:47:36.851Z,95.50
2019-03-16T01:50:06.826Z,95.80
2019-03-16T01:52:35.953Z,95.40
2019-03-16T01:55:05.462Z,95.30
2019-03-16T01:57:34.649Z,95.30
2019-03-16T02:00:04.236Z,95.30
2019-03-16T02:02:33.470Z,95.40
2019-03-16T02:05:02.741Z,95.20
2019-03-16T02:07:31.951Z,94.90
2019-03-16T02:10:01.115Z,94.90
2019-03-16T02:12:30.954Z,94.80
2019-03-16T02:15:00.280Z,94.50
2019-03-16T02:17:29.643Z,94.40
2019-03-16T02:19:58.777Z,94.20
2019-03-16T02:22:27.906Z,94.10
2019-03-16T02:24:57.093Z,93.50
2019-03-16T02:27:26.229Z,93.70
2019-03-16T02:29:55.362Z,93.50
2019-03-16T02:32:24.507Z,93.20
2019-03-16T02:34:53.651Z,93.30
2019-03-16T02:37:22.897Z,92.90
2019-03-16T02:39:52.124Z,92.80
2019-03-16T02:42:21.331Z,92.80
2019-03-16T02:44:50.492Z,92.90
2019-03-16T02:47:19.734Z,92.70
2019-03-16T02:49:49.007Z,92.60
2019-03-16T02:52:18.177Z,92.70
2019-03-16T02:54:47.325Z,92.50
2019-03-16T02:57:16.458Z,92.40
2019-03-16T02:59:45.598Z,92.20
2019-03-16T03:02:14.725Z,92.30
2019-03-16T03:04:46.053Z,92.30
2019-03-16T03:07:14.765Z,92.30
2019-03-16T03:09:43.927Z,92.20
2019-03-16T03:12:13.142Z,92.00
2019-03-16T03:14:42.378Z,91.90
2019-03-16T03:17:11.517Z,91.80
2019-03-16T03:19:40.654Z,91.80
2019-03-16T03:22:09.809Z,91.50
2019-03-16T03:24:43.767Z,91.50
2019-03-16T03:27:09.905Z,91.40
2019-03-16T03:29:39.115Z,91.20
2019-03-16T03:32:08.298Z,91.40
2019-03-16T03:34:37.571Z,91.00
2019-03-16T03:37:06.795Z,91.20
2019-03-16T03:39:36.017Z,91.20
2019-03-16T03:42:05.137Z,91.00
2019-03-16T03:44:34.282Z,90.80
2019-03-16T03:47:03.567Z,90.60
2019-03-16T03:49:32.738Z,90.60
2019-03-16T03:52:01.907Z,90.40
2019-03-16T03:54:31.158Z,90.30
2019-03-16T03:57:00.290Z,90.40
2019-03-16T03:59:29.417Z,90.60
2019-03-16T04:01:58.591Z,90.50
2019-03-16T04:04:27.838Z,90.60
2019-03-16T04:06:56.982Z,90.70
2019-03-16T04:09:26.162Z,90.60
2019-03-16T04:11:55.316Z,90.60
2019-03-16T04:14:24.642Z,90.40
2019-03-16T04:16:53.802Z,90.50
2019-03-16T04:19:22.927Z,90.50
2019-03-16T04:21:52.144Z,90.50
2019-03-16T04:24:21.287Z,90.60
2019-03-16T04:26:50.454Z,90.50
2019-03-16T04:29:19.632Z,90.40
2019-03-16T04:31:48.759Z,90.50
2019-03-16T04:34:28.329Z,90.40
2019-03-16T04:36:48.834Z,90.00
2019-03-16T04:39:18.037Z,90.30
2019-03-16T04:41:47.305Z,90.50
2019-03-16T04:44:16.522Z,90.50
2019-03-16T04:46:45.653Z,90.50
2019-03-16T04:49:14.881Z,90.30
2019-03-16T04:51:44.026Z,90.30
2019-03-16T04:54:13.261Z,90.30
2019-03-16T04:56:42.394Z,90.40
2019-03-16T04:59:11.598Z,90.00
2019-03-16T05:01:40.742Z,90.00
2019-03-16T05:04:09.971Z,89.80
2019-03-16T05:06:39.209Z,90.10
2019-03-16T05:09:08.709Z,90.20
2019-03-16T05:11:37.933Z,90.20
2019-03-16T05:14:07.089Z,90.20
2019-03-16T05:16:36.234Z,90.10
2019-03-16T05:19:05.481Z,90.20
2019-03-16T05:21:34.705Z,90.30
2019-03-16T05:24:03.925Z,90.30
2019-03-16T05:26:33.122Z,90.00
2019-03-16T05:29:02.254Z,90.00
2019-03-16T05:31:31.393Z,90.00
2019-03-16T05:34:00.743Z,89.70
2019-03-16T05:36:29.877Z,89.90
2019-03-16T05:38:59.078Z,89.70
2019-03-16T05:41:28.221Z,89.40
2019-03-16T05:43:57.363Z,89.70
2019-03-16T05:46:26.508Z,89.70
2019-03-16T05:48:55.731Z,89.60
2019-03-16T05:51:24.904Z,89.10
2019-03-16T05:53:54.173Z,88.90
2019-03-16T05:56:23.398Z,88.70
2019-03-16T05:58:52.545Z,88.60
2019-03-16T06:01:21.682Z,88.60
2019-03-16T06:03:50.907Z,88.40
2019-03-16T06:06:20.038Z,88.40
2019-03-16T06:08:49.240Z,88.80
2019-03-16T06:11:18.397Z,88.30
2019-03-16T06:13:47.558Z,88.30
2019-03-16T06:16:16.698Z,88.70
2019-03-16T06:18:46.703Z,88.50
2019-03-16T06:21:15.866Z,88.90
2019-03-16T06:23:44.998Z,88.80
2019-03-16T06:26:14.250Z,88.70
2019-03-16T06:28:43.382Z,89.00
2019-03-16T06:31:12.535Z,89.30
2019-03-16T06:33:41.834Z,89.40
2019-03-16T06:36:10.970Z,89.20
2019-03-16T06:38:40.107Z,89.10
2019-03-16T06:41:09.258Z,89.30
2019-03-16T06:43:38.398Z,89.60
2019-03-16T06:46:07.617Z,89.70
2019-03-16T06:48:36.847Z,89.80
2019-03-16T06:51:06.042Z,89.70
2019-03-16T06:53:35.193Z,89.30
2019-03-16T06:56:04.345Z,89.30
2019-03-16T06:58:33.665Z,89.40
2019-03-16T07:01:02.814Z,89.20
2019-03-16T07:03:33.309Z,89.30
2019-03-16T07:06:06.745Z,89.10
2019-03-16T07:08:37.921Z,88.90
2019-03-16T07:11:09.607Z,88.60
2019-03-16T07:13:38.864Z,87.70
2019-03-16T07:16:08.081Z,88.10
2019-03-16T07:18:37.265Z,88.20
2019-03-16T07:21:06.405Z,88.30
2019-03-16T07:23:35.648Z,88.10
2019-03-16T07:26:14.631Z,88.40
2019-03-16T07:28:36.126Z,88.60
2019-03-16T07:31:05.320Z,88.50
2019-03-16T07:33:34.457Z,88.40
2019-03-16T07:36:03.653Z,88.50
2019-03-16T07:38:32.902Z,88.20
2019-03-16T07:41:02.078Z,88.00
2019-03-16T07:43:31.230Z,88.50
2019-03-16T07:46:00.477Z,88.60
2019-03-16T07:48:29.613Z,89.30
2019-03-16T07:50:58.753Z,88.30
2019-03-16T07:53:28.010Z,88.60
2019-03-16T07:55:57.167Z,89.00
2019-03-16T07:58:26.744Z,87.00
2019-03-16T08:00:55.950Z,86.70
2019-03-16T08:03:25.101Z,86.70
2019-03-16T08:05:54.333Z,86.70
2019-03-16T08:08:23.473Z,87.20
2019-03-16T08:10:52.861Z,87.20
2019-03-16T08:13:22.010Z,86.40
2019-03-16T08:15:51.269Z,85.40
2019-03-16T08:18:20.449Z,85.30
2019-03-16T08:20:49.659Z,85.60
2019-03-16T08:23:18.904Z,85.70
2019-03-16T08:25:48.290Z,84.80
2019-03-16T08:28:17.647Z,85.20
2019-03-16T08:30:46.821Z,85.90
2019-03-16T08:33:16.005Z,86.50
2019-03-16T08:35:45.393Z,86.90
2019-03-16T08:38:14.540Z,86.90
2019-03-16T08:40:43.752Z,86.80
2019-03-16T08:43:12.900Z,86.80
2019-03-16T08:45:42.133Z,87.30
2019-03-16T08:48:22.191Z,86.40
2019-03-16T08:50:42.341Z,85.90
2019-03-16T08:53:11.477Z,85.60
2019-03-16T08:55:40.645Z,86.10
2019-03-16T08:58:09.793Z,86.50
2019-03-16T09:00:39.049Z,84.40
2019-03-16T09:03:08.406Z,84.40
2019-03-16T09:05:37.773Z,84.40
2019-03-16T09:08:06.947Z,84.30
2019-03-16T09:10:36.106Z,83.70
2019-03-16T09:13:05.429Z,82.30
2019-03-16T09:15:34.737Z,81.10
2019-03-16T09:18:03.972Z,81.10
2019-03-16T09:20:33.237Z,81.20
2019-03-16T09:23:02.887Z,80.80
2019-03-16T09:25:32.429Z,80.50
2019-03-16T09:28:01.661Z,80.90
2019-03-16T09:30:30.929Z,80.70
2019-03-16T09:33:00.287Z,79.40
2019-03-16T09:35:29.594Z,74.90
2019-03-16T09:37:58.781Z,69.20
2019-03-16T09:40:28.030Z,71.20
2019-03-16T09:42:57.220Z,68.90
2019-03-16T09:45:26.447Z,66.00
2019-03-16T09:47:55.629Z,62.80
2019-03-16T09:50:24.945Z,63.20
2019-03-16T09:52:54.245Z,66.90
2019-03-16T09:55:23.540Z,69.10
2019-03-16T09:57:52.949Z,71.20
2019-03-16T10:00:22.095Z,72.50
2019-03-16T10:02:51.346Z,74.60
2019-03-16T10:05:20.637Z,75.20
2019-03-16T10:07:49.873Z,76.50
2019-03-16T10:10:19.239Z,76.60
2019-03-16T10:12:48.602Z,73.90
2019-03-16T10:15:17.841Z,72.90
2019-03-16T10:17:49.117Z,73.50
2019-03-16T10:20:18.821Z,73.70
2019-03-16T10:22:48.110Z,71.80
2019-03-16T10:25:17.262Z,70.70
2019-03-16T10:27:46.426Z,66.30
2019-03-16T10:30:15.665Z,60.40
2019-03-16T10:32:44.965Z,59.20
2019-03-16T10:35:14.182Z,61.10
2019-03-16T10:37:47.676Z,62.40
2019-03-16T10:40:21.299Z,65.40
2019-03-16T10:42:51.888Z,65.40
2019-03-16T10:45:21.452Z,65.50
2019-03-16T10:47:50.669Z,65.20
2019-03-16T10:50:19.918Z,63.60
2019-03-16T10:52:49.079Z,65.40
2019-03-16T10:55:18.305Z,65.20
2019-03-16T10:57:47.877Z,66.50
2019-03-16T11:00:17.249Z,67.70
2019-03-16T11:02:49.844Z,66.90
2019-03-16T11:05:19.542Z,65.60
2019-03-16T11:07:48.899Z,65.40
2019-03-16T11:10:18.247Z,66.90
2019-03-16T11:12:47.579Z,67.50
2019-03-16T11:15:16.921Z,67.80
2019-03-16T11:17:47.171Z,67.80
2019-03-16T11:20:16.780Z,68.40
2019-03-16T11:22:45.968Z,68.90
2019-03-16T11:25:15.245Z,68.80
2019-03-16T11:27:44.633Z,68.80
2019-03-16T11:30:13.909Z,68.00
2019-03-16T11:32:43.148Z,67.70
2019-03-16T11:35:12.410Z,67.30
2019-03-16T11:37:41.575Z,67.20
2019-03-16T11:40:12.875Z,67.70
2019-03-16T11:42:42.005Z,68.20
2019-03-16T11:45:11.274Z,67.50
2019-03-16T11:47:40.473Z,67.50
2019-03-16T11:50:09.635Z,67.60
2019-03-16T11:52:38.865Z,67.90
2019-03-16T11:55:09.934Z,67.40
2019-03-16T11:57:39.205Z,67.70
2019-03-16T12:00:09.076Z,67.70
2019-03-16T12:02:38.283Z,67.90
2019-03-16T12:05:09.535Z,67.00
2019-03-16T12:07:38.921Z,67.60
2019-03-16T12:10:11.018Z,67.90
2019-03-16T12:12:40.305Z,68.00
2019-03-16T12:15:09.646Z,67.30
2019-03-16T12:17:41.213Z,67.60
2019-03-16T12:20:10.521Z,67.30
2019-03-16T12:22:39.721Z,67.90
2019-03-16T12:25:08.890Z,68.00
2019-03-16T12:27:38.224Z,67.50
2019-03-16T12:30:07.716Z,67.90
2019-03-16T12:32:38.165Z,67.60
2019-03-16T12:35:07.841Z,67.90
2019-03-16T12:37:37.192Z,68.10
2019-03-16T12:40:07.026Z,68.10
2019-03-16T12:42:36.356Z,66.80
2019-03-16T12:45:07.897Z,67.40
2019-03-16T12:47:37.671Z,67.90
2019-03-16T12:50:08.105Z,67.50
2019-03-16T12:52:37.398Z,67.90
2019-03-16T12:55:07.113Z,67.30
2019-03-16T12:57:36.725Z,67.30
2019-03-16T13:00:10.042Z,67.00
2019-03-16T13:02:39.224Z,67.20
2019-03-16T13:05:09.997Z,67.40
2019-03-16T13:07:39.158Z,67.40
2019-03-16T13:10:10.119Z,67.10
2019-03-16T13:12:39.356Z,66.40
2019-03-16T13:15:08.711Z,66.40
2019-03-16T13:17:38.049Z,67.00
2019-03-16T13:20:07.757Z,66.70
2019-03-16T13:22:36.958Z,66.50
2019-03-16T13:25:06.746Z,66.90
2019-03-16T13:27:35.978Z,67.40
2019-03-16T13:30:05.783Z,66.60
2019-03-16T13:32:35.038Z,66.30
2019-03-16T13:35:04.567Z,66.30
2019-03-16T13:37:33.782Z,66.40
2019-03-16T13:40:03.047Z,66.70
2019-03-16T13:42:32.210Z,67.00
2019-03-16T13:45:01.497Z,67.20
2019-03-16T13:47:30.638Z,66.70
2019-03-16T13:49:59.863Z,66.00
2019-03-16T13:52:29.181Z,65.30
2019-03-16T13:54:58.346Z,65.40
2019-03-16T13:57:27.990Z,65.40
2019-03-16T13:59:57.245Z,65.80
2019-03-16T14:02:26.406Z,66.00
2019-03-16T14:04:55.573Z,65.60
2019-03-16T14:07:25.010Z,65.50
2019-03-16T14:09:54.179Z,65.70
2019-03-16T14:12:23.345Z,65.20
2019-03-16T14:14:52.885Z,65.10
2019-03-16T14:17:22.089Z,65.10
2019-03-16T14:19:51.259Z,65.60
2019-03-16T14:22:20.434Z,65.50
2019-03-16T14:24:49.629Z,65.50
2019-03-16T14:27:18.890Z,65.40
2019-03-16T14:29:48.045Z,65.70
2019-03-16T14:32:17.421Z,66.00
2019-03-16T14:34:47.054Z,66.00
2019-03-16T14:37:16.485Z,66.60
2019-03-16T14:39:45.849Z,67.40
2019-03-16T14:42:15.222Z,67.50
2019-03-16T14:44:44.375Z,67.60
2019-03-16T14:47:13.934Z,67.70
2019-03-16T14:49:43.426Z,68.10
2019-03-16T14:52:12.626Z,68.00
2019-03-16T14:54:41.775Z,67.80
2019-03-16T14:57:10.969Z,67.90
2019-03-16T14:59:40.199Z,68.20
2019-03-16T15:02:09.337Z,68.30
2019-03-16T15:04:38.602Z,67.80
2019-03-16T15:07:07.768Z,68.10
2019-03-16T15:09:37.021Z,68.20
2019-03-16T15:12:06.202Z,68.50
2019-03-16T15:14:35.365Z,68.50
2019-03-16T15:17:04.514Z,68.50
2019-03-16T15:19:33.687Z,68.60
2019-03-16T15:22:02.969Z,68.60
2019-03-16T15:24:32.153Z,68.80
2019-03-16T15:27:01.385Z,68.90
2019-03-16T15:29:31.447Z,69.00
2019-03-16T15:32:00.826Z,69.20
2019-03-16T15:34:29.981Z,69.40
2019-03-16T15:36:59.199Z,69.70
2019-03-16T15:39:28.422Z,70.00
2019-03-16T15:41:57.565Z,70.30
2019-03-16T15:44:26.935Z,70.60
2019-03-16T15:46:56.099Z,70.90
2019-03-16T15:49:25.358Z,71.20
2019-03-16T15:51:54.648Z,71.50
2019-03-16T15:54:23.786Z,71.60
2019-03-16T15:56:53.010Z,71.50
2019-03-16T15:59:22.194Z,71.70
2019-03-16T16:01:51.441Z,72.10
2019-03-16T16:04:20.637Z,72.70
2019-03-16T16:06:49.846Z,72.90
2019-03-16T16:09:18.997Z,73.20
2019-03-16T16:11:48.153Z,73.00
2019-03-16T16:14:17.359Z,73.40
2019-03-16T16:16:46.694Z,73.30
2019-03-16T16:19:15.855Z,74.40
2019-03-16T16:21:45.117Z,76.30
2019-03-16T16:24:14.281Z,79.10
2019-03-16T16:26:43.441Z,80.20
2019-03-16T16:29:12.625Z,81.80
2019-03-16T16:31:41.775Z,83.20
2019-03-16T16:34:10.942Z,84.90
2019-03-16T16:36:40.201Z,86.20
2019-03-16T16:39:09.369Z,86.90
2019-03-16T16:41:38.582Z,87.70
2019-03-16T16:44:07.754Z,88.20
2019-03-16T16:46:36.912Z,88.70
2019-03-16T16:49:06.086Z,89.80
2019-03-16T16:51:35.233Z,90.10
2019-03-16T16:54:04.554Z,90.70
2019-03-16T16:56:33.715Z,91.20
2019-03-16T16:59:02.925Z,91.50
2019-03-16T17:01:32.110Z,91.60
2019-03-16T17:04:01.250Z,92.00
2019-03-16T17:06:30.394Z,92.00
2019-03-16T17:08:59.562Z,92.20
2019-03-16T17:11:28.818Z,92.40
2019-03-16T17:13:57.973Z,92.80
2019-03-16T17:16:27.165Z,92.70
2019-03-16T17:18:56.350Z,92.80
2019-03-16T17:21:25.504Z,92.80
2019-03-16T17:23:54.637Z,92.70
2019-03-16T17:26:23.866Z,92.80
2019-03-16T17:28:53.105Z,92.90
2019-03-16T17:31:22.273Z,92.80
2019-03-16T17:33:51.415Z,93.00
2019-03-16T17:36:22.201Z,93.20
2019-03-16T17:38:51.454Z,93.20
2019-03-16T17:41:20.615Z,93.50
2019-03-16T17:43:49.829Z,93.20
2019-03-16T17:46:19.011Z,93.20
2019-03-16T17:48:48.282Z,93.60
2019-03-16T17:51:17.437Z,93.70
2019-03-16T17:53:47.058Z,93.80
2019-03-16T17:56:16.449Z,93.90
2019-03-16T17:58:45.594Z,94.10
2019-03-16T18:01:14.854Z,94.20
2019-03-16T18:03:44.115Z,94.40
2019-03-16T18:06:13.412Z,94.30
2019-03-16T18:08:42.713Z,94.40
2019-03-16T18:11:11.871Z,94.80
2019-03-16T18:13:41.025Z,94.80
2019-03-16T18:16:10.205Z,94.90
2019-03-16T18:18:39.357Z,95.10
2019-03-16T18:21:08.579Z,95.30
2019-03-16T18:23:37.750Z,95.80
2019-03-16T18:26:07.163Z,96.00
2019-03-16T18:28:36.349Z,96.50
2019-03-16T18:31:05.578Z,96.70
2019-03-16T18:33:34.913Z,97.40
2019-03-16T18:36:04.114Z,98.00
2019-03-16T18:38:33.245Z,98.40
2019-03-16T18:41:02.398Z,98.90
2019-03-16T18:43:31.620Z,99.20
2019-03-16T18:46:00.859Z,99.90
2019-03-16T18:48:30.528Z,99.80
2019-03-16T18:50:59.903Z,99.80
2019-03-16T18:53:29.129Z,99.90
2019-03-16T18:55:58.276Z,99.90
2019-03-16T18:58:37.013Z,99.90
2019-03-16T19:00:58.342Z,99.90
2019-03-16T19:03:27.571Z,99.90
2019-03-16T19:05:56.829Z,99.90
2019-03-16T19:08:26.343Z,99.90
2019-03-16T19:10:55.727Z,99.90
2019-03-16T19:13:25.067Z,99.90
2019-03-16T19:15:54.226Z,99.90
2019-03-16T19:18:23.369Z,99.90
2019-03-16T19:20:52.613Z,99.90
2019-03-16T19:23:21.771Z,99.90
2019-03-16T19:25:53.074Z,99.90
2019-03-16T19:28:22.397Z,99.90
2019-03-16T19:30:51.697Z,99.90
2019-03-16T19:33:20.965Z,99.90
2019-03-16T19:35:50.277Z,99.90
2019-03-16T19:38:19.458Z,99.90
2019-03-16T19:40:48.697Z,99.90
2019-03-16T19:43:17.846Z,99.90
2019-03-16T19:45:47.072Z,99.90
2019-03-16T19:48:16.593Z,99.90
2019-03-16T19:50:45.835Z,99.90
2019-03-16T19:53:15.078Z,99.90
2019-03-16T19:55:44.420Z,99.90
2019-03-16T19:58:13.674Z,99.90
2019-03-16T20:00:42.863Z,99.90
2019-03-16T20:03:12.130Z,99.90
2019-03-16T20:05:41.418Z,99.90
2019-03-16T20:08:10.661Z,99.90
2019-03-16T20:10:39.978Z,99.90
2019-03-16T20:13:09.396Z,99.90
2019-03-16T20:15:38.696Z,99.90
2019-03-16T20:18:07.913Z,99.90
2019-03-16T20:20:37.153Z,99.90
2019-03-16T20:23:06.433Z,99.90
2019-03-16T20:25:35.618Z,99.90
2019-03-16T20:28:05.085Z,99.90
2019-03-16T20:30:34.548Z,99.90
2019-03-16T20:33:04.529Z,99.90
2019-03-16T20:35:34.029Z,99.90
2019-03-16T20:38:03.200Z,99.90
2019-03-16T20:40:32.507Z,99.90
2019-03-16T20:43:01.674Z,99.90
2019-03-16T20:45:31.041Z,99.90
2019-03-16T20:48:00.350Z,99.90
2019-03-16T20:50:29.597Z,99.90
2019-03-16T20:52:58.751Z,99.90
2019-03-16T20:55:27.889Z,99.90
2019-03-16T20:57:57.598Z,99.90
2019-03-16T21:00:26.770Z,99.90
2019-03-16T21:02:55.922Z,99.90
2019-03-16T21:05:25.090Z,99.90
2019-03-16T21:07:54.691Z,99.90
2019-03-16T21:10:23.857Z,99.90
2019-03-16T21:12:52.989Z,99.90
2019-03-16T21:15:22.281Z,99.90
2019-03-16T21:17:51.463Z,99.90
2019-03-16T21:20:20.836Z,99.90
2019-03-16T21:22:50.225Z,99.90
2019-03-16T21:25:19.487Z,99.90
2019-03-16T21:27:48.724Z,99.90
2019-03-16T21:30:17.945Z,99.90
2019-03-16T21:32:47.150Z,99.90
2019-03-16T21:35:16.318Z,99.90
2019-03-16T21:37:45.570Z,99.90
2019-03-16T21:40:14.723Z,99.90
2019-03-16T21:42:43.906Z,99.90
2019-03-16T21:45:13.339Z,99.90
2019-03-16T21:47:42.568Z,99.90
2019-03-16T21:50:11.808Z,99.90
2019-03-16T21:52:44.057Z,99.90
2019-03-16T21:55:11.914Z,99.90
2019-03-16T21:57:41.100Z,99.90
2019-03-16T22:00:11.586Z,99.90
2019-03-16T22:02:40.733Z,99.90
2019-03-16T22:05:10.090Z,99.90
2019-03-16T22:07:39.530Z,99.90
2019-03-16T22:10:08.753Z,99.90
2019-03-16T22:12:37.972Z,99.90
2019-03-16T22:15:08.158Z,99.90
2019-03-16T22:17:37.321Z,99.90
2019-03-16T22:20:08.341Z,99.90
2019-03-16T22:22:37.490Z,99.90
2019-03-16T22:25:06.670Z,99.90
2019-03-16T22:27:35.863Z,99.90
2019-03-16T22:30:05.819Z,99.90
2019-03-16T22:32:35.186Z,99.90
2019-03-16T22:35:04.958Z,99.90
2019-03-16T22:37:34.097Z,99.90
2019-03-16T22:40:03.345Z,99.90
2019-03-16T22:42:32.501Z,99.90
2019-03-16T22:45:01.776Z,99.90
2019-03-16T22:47:31.000Z,99.90
2019-03-16T22:50:00.283Z,99.90
2019-03-16T22:52:29.585Z,99.90
2019-03-16T22:54:58.802Z,99.90
2019-03-16T22:57:27.950Z,99.90
2019-03-16T22:59:57.145Z,99.90
2019-03-16T23:02:26.285Z,99.90
2019-03-16T23:04:55.450Z,99.90
2019-03-16T23:07:24.761Z,99.90
2019-03-16T23:09:54.284Z,99.90
2019-03-16T23:12:23.457Z,99.90
2019-03-16T23:14:52.627Z,99.90
2019-03-16T23:17:21.793Z,99.90
2019-03-16T23:19:51.030Z,99.90
2019-03-16T23:22:20.212Z,99.90
2019-03-16T23:24:49.424Z,99.90
2019-03-16T23:27:18.605Z,99.90
2019-03-16T23:29:47.787Z,99.90
2019-03-16T23:32:17.472Z,99.90
2019-03-16T23:34:46.633Z,99.90
2019-03-16T23:37:15.804Z,99.90
2019-03-16T23:39:44.974Z,99.90
2019-03-16T23:42:14.277Z,99.90
2019-03-16T23:44:43.471Z,99.90
2019-03-16T23:47:12.643Z,99.90
2019-03-16T23:49:41.845Z,99.90
2019-03-16T23:52:11.053Z,99.90
2019-03-16T23:54:40.207Z,99.90
2019-03-16T23:57:09.457Z,99.90
2019-03-16T23:59:38.607Z,99.90
